Time,TemperatureF,DewpointF,PressureIn,WindDirection,WindDirectionDegrees,WindSpeedMPH,WindSpeedGustMPH,Humidity,HourlyPrecipIn,Conditions,Clouds,dailyrainin,SoftwareType,DateUTC
2014-01-01 00:00:00,22.0,14.7,30.28,NW,315,7.0,10.0,73,0.00,,,0.00,Weather View 32 v70,2014-01-01 05:00:00,
2014-01-01 00:01:00,22.0,14.4,30.28,NW,315,4.0,10.0,72,0.00,,,0.00,Weather View 32 v70,2014-01-01 05:01:00,
2014-01-01 00:02:00,22.0,14.4,30.28,WNW,292,4.0,10.0,72,0.00,,,0.00,Weather View 32 v70,2014-01-01 05:02:00,
2014-01-01 00:07:00,22.0,14.4,30.28,WNW,292,1.0,10.0,72,0.00,,,0.00,Weather View 32 v70,2014-01-01 05:07:00,
2014-01-01 00:12:00,22.0,14.4,30.28,WNW,292,2.0,10.0,72,0.00,,,0.00,Weather View 32 v70,2014-01-01 05:12:00,
2014-01-01 00:17:00,22.0,14.4,30.29,NW,315,3.0,10.0,72,0.00,,,0.00,Weather View 32 v70,2014-01-01 05:17:00,
2014-01-01 00:22:00,22.0,14.4,30.29,North,360,1.0,10.0,72,0.00,,,0.00,Weather View 32 v70,2014-01-01 05:22:00,
2014-01-01 00:27:00,22.0,14.7,30.29,North,360,2.0,10.0,73,0.00,,,0.00,Weather View 32 v70,2014-01-01 05:27:00,
2014-01-01 00:32:00,21.0,13.7,30.29,North,360,1.0,10.0,73,0.00,,,0.00,Weather View 32 v70,2014-01-01 05:32:00,
2014-01-01 00:37:00,21.0,14.0,30.29,North,360,0.0,10.0,74,0.00,,,0.00,Weather View 32 v70,2014-01-01 05:37:00,
2014-01-01 00:41:00,20.0,12.7,30.29,NNE,22,5.0,9.0,73,0.00,,,0.00,Weather View 32 v70,2014-01-01 05:41:00,
2014-01-01 00:46:00,20.0,13.1,30.30,WNW,292,1.0,8.0,74,0.00,,,0.00,Weather View 32 v70,2014-01-01 05:46:00,
2014-01-01 00:51:00,20.0,13.4,30.30,WNW,292,1.0,7.0,75,0.00,,,0.00,Weather View 32 v70,2014-01-01 05:51:00,
2014-01-01 00:56:00,20.0,13.4,30.30,WNW,292,2.0,7.0,75,0.00,,,0.00,Weather View 32 v70,2014-01-01 05:56:00,
2014-01-01 01:01:00,20.0,13.7,30.30,WNW,292,4.0,7.0,76,0.00,,,0.00,Weather View 32 v70,2014-01-01 06:01:00,
2014-01-01 01:06:00,20.0,14.2,30.31,WNW,292,2.0,7.0,78,0.00,,,0.00,Weather View 32 v70,2014-01-01 06:06:00,
2014-01-01 01:11:00,19.0,13.3,30.31,WNW,292,1.0,7.0,78,0.00,,,0.00,Weather View 32 v70,2014-01-01 06:11:00,
2014-01-01 01:14:00,19.0,13.3,30.31,NW,315,2.0,7.0,78,0.00,,,0.00,Weather View 32 v70,2014-01-01 06:14:00,
2014-01-01 01:19:00,19.0,13.0,30.31,WNW,292,4.0,7.0,77,0.00,,,0.00,Weather View 32 v70,2014-01-01 06:19:00,
2014-01-01 01:24:00,19.0,12.7,30.31,NW,315,3.0,10.0,76,0.00,,,0.00,Weather View 32 v70,2014-01-01 06:24:00,
2014-01-01 01:29:00,20.0,13.1,30.32,West,270,6.0,10.0,74,0.00,,,0.00,Weather View 32 v70,2014-01-01 06:29:00,
2014-01-01 01:34:00,20.0,10.8,30.32,NNW,337,6.0,10.0,67,0.00,,,0.00,Weather View 32 v70,2014-01-01 06:34:00,
2014-01-01 01:39:00,20.0,10.8,30.33,NW,315,6.0,10.0,67,0.00,,,0.00,Weather View 32 v70,2014-01-01 06:39:00,
2014-01-01 01:44:00,20.0,9.8,30.33,WNW,292,4.0,10.0,64,0.00,,,0.00,Weather View 32 v70,2014-01-01 06:44:00,
2014-01-01 01:49:00,20.0,10.8,30.33,WSW,247,2.0,10.0,67,0.00,,,0.00,Weather View 32 v70,2014-01-01 06:49:00,
2014-01-01 01:54:00,20.0,11.5,30.33,WNW,292,1.0,10.0,69,0.00,,,0.00,Weather View 32 v70,2014-01-01 06:54:00,
2014-01-01 01:55:00,20.0,11.5,30.33,WNW,292,2.0,10.0,69,0.00,,,0.00,Weather View 32 v70,2014-01-01 06:55:00,
2014-01-01 02:00:00,19.0,10.8,30.33,WSW,247,3.0,10.0,70,0.00,,,0.00,Weather View 32 v70,2014-01-01 07:00:00,
2014-01-01 02:05:00,19.0,11.8,30.33,WNW,292,2.0,10.0,73,0.00,,,0.00,Weather View 32 v70,2014-01-01 07:05:00,
2014-01-01 02:10:00,19.0,11.8,30.34,WSW,247,1.0,10.0,73,0.00,,,0.00,Weather View 32 v70,2014-01-01 07:10:00,
2014-01-01 02:15:00,19.0,11.5,30.34,West,270,6.0,10.0,72,0.00,,,0.00,Weather View 32 v70,2014-01-01 07:15:00,
2014-01-01 02:20:00,19.0,11.8,30.34,WSW,247,3.0,10.0,73,0.00,,,0.00,Weather View 32 v70,2014-01-01 07:20:00,
2014-01-01 02:22:00,19.0,11.2,30.34,WNW,292,4.0,10.0,71,0.00,,,0.00,Weather View 32 v70,2014-01-01 07:22:00,
2014-01-01 02:27:00,20.0,12.1,30.35,WSW,247,2.0,11.0,71,0.00,,,0.00,Weather View 32 v70,2014-01-01 07:27:00,
2014-01-01 02:32:00,19.0,11.2,30.35,NW,315,7.0,11.0,71,0.00,,,0.00,Weather View 32 v70,2014-01-01 07:32:00,
2014-01-01 02:37:00,19.0,10.8,30.35,West,270,1.0,11.0,70,0.00,,,0.00,Weather View 32 v70,2014-01-01 07:37:00,
2014-01-01 02:42:00,19.0,11.5,30.35,WSW,247,0.0,11.0,72,0.00,,,0.00,Weather View 32 v70,2014-01-01 07:42:00,
2014-01-01 02:47:00,19.0,10.8,30.35,West,270,2.0,11.0,70,0.00,,,0.00,Weather View 32 v70,2014-01-01 07:47:00,
2014-01-01 02:52:00,19.0,10.5,30.35,West,270,4.0,11.0,69,0.00,,,0.00,Weather View 32 v70,2014-01-01 07:52:00,
2014-01-01 02:57:00,19.0,10.8,30.36,WNW,292,1.0,11.0,70,0.00,,,0.00,Weather View 32 v70,2014-01-01 07:57:00,
2014-01-01 03:00:00,19.0,10.8,30.36,West,270,2.0,11.0,70,0.00,,,0.00,Weather View 32 v70,2014-01-01 08:00:00,
2014-01-01 03:05:00,19.0,10.2,30.36,West,270,0.0,11.0,68,0.00,,,0.00,Weather View 32 v70,2014-01-01 08:05:00,
2014-01-01 03:10:00,19.0,10.2,30.36,West,270,1.0,11.0,68,0.00,,,0.00,Weather View 32 v70,2014-01-01 08:10:00,
2014-01-01 03:15:00,19.0,10.2,30.36,WSW,247,1.0,11.0,68,0.00,,,0.00,Weather View 32 v70,2014-01-01 08:15:00,
2014-01-01 03:20:00,19.0,10.8,30.36,WNW,292,0.0,11.0,70,0.00,,,0.00,Weather View 32 v70,2014-01-01 08:20:00,
2014-01-01 03:25:00,19.0,10.2,30.36,WNW,292,1.0,7.0,68,0.00,,,0.00,Weather View 32 v70,2014-01-01 08:25:00,
2014-01-01 03:30:00,19.0,10.2,30.36,West,270,3.0,7.0,68,0.00,,,0.00,Weather View 32 v70,2014-01-01 08:30:00,
2014-01-01 03:35:00,19.0,10.2,30.36,West,270,4.0,7.0,68,0.00,,,0.00,Weather View 32 v70,2014-01-01 08:35:00,
2014-01-01 03:40:00,19.0,10.8,30.37,WNW,292,2.0,7.0,70,0.00,,,0.00,Weather View 32 v70,2014-01-01 08:40:00,
2014-01-01 03:45:00,19.0,10.5,30.37,WSW,247,1.0,7.0,69,0.00,,,0.00,Weather View 32 v70,2014-01-01 08:45:00,
2014-01-01 03:50:00,18.0,9.9,30.36,West,270,1.0,7.0,70,0.00,,,0.00,Weather View 32 v70,2014-01-01 08:50:00,
2014-01-01 03:55:00,18.0,10.5,30.36,West,270,2.0,7.0,72,0.00,,,0.00,Weather View 32 v70,2014-01-01 08:55:00,
2014-01-01 04:00:00,18.0,10.5,30.37,West,270,0.0,7.0,72,0.00,,,0.00,Weather View 32 v70,2014-01-01 09:00:00,
2014-01-01 04:05:00,18.0,16.6,30.37,West,270,0.0,7.0,94,0.00,,,0.00,Weather View 32 v70,2014-01-01 09:05:00,
2014-01-01 04:10:00,19.0,11.8,30.37,West,270,0.0,7.0,73,0.00,,,0.00,Weather View 32 v70,2014-01-01 09:10:00,
2014-01-01 04:15:00,18.0,11.1,30.37,West,270,0.0,6.0,74,0.00,,,0.00,Weather View 32 v70,2014-01-01 09:15:00,
2014-01-01 04:20:00,18.0,11.4,30.37,West,270,0.0,6.0,75,0.00,,,0.00,Weather View 32 v70,2014-01-01 09:20:00,
2014-01-01 04:25:00,18.0,13.7,30.37,West,270,0.0,6.0,83,0.00,,,0.00,Weather View 32 v70,2014-01-01 09:25:00,
2014-01-01 04:30:00,18.0,11.7,30.38,SSW,202,3.0,6.0,76,0.00,,,0.00,Weather View 32 v70,2014-01-01 09:30:00,
2014-01-01 04:35:00,18.0,12.0,30.38,SSW,202,2.0,6.0,77,0.00,,,0.00,Weather View 32 v70,2014-01-01 09:35:00,
2014-01-01 04:40:00,18.0,12.6,30.37,WSW,247,5.0,5.0,79,0.00,,,0.00,Weather View 32 v70,2014-01-01 09:40:00,
2014-01-01 04:45:00,18.0,12.0,30.37,SW,225,2.0,6.0,77,0.00,,,0.00,Weather View 32 v70,2014-01-01 09:45:00,
2014-01-01 04:50:00,18.0,12.0,30.37,SW,225,5.0,6.0,77,0.00,,,0.00,Weather View 32 v70,2014-01-01 09:50:00,
2014-01-01 04:55:00,18.0,12.0,30.37,SW,225,3.0,6.0,77,0.00,,,0.00,Weather View 32 v70,2014-01-01 09:55:00,
2014-01-01 05:00:00,18.0,12.0,30.37,SW,225,4.0,6.0,77,0.00,,,0.00,Weather View 32 v70,2014-01-01 10:00:00,
2014-01-01 05:05:00,18.0,12.0,30.37,WSW,247,3.0,6.0,77,0.00,,,0.00,Weather View 32 v70,2014-01-01 10:05:00,
2014-01-01 05:10:00,18.0,12.0,30.37,WSW,247,3.0,6.0,77,0.00,,,0.00,Weather View 32 v70,2014-01-01 10:10:00,
2014-01-01 05:15:00,18.0,12.0,30.37,WSW,247,3.0,6.0,77,0.00,,,0.00,Weather View 32 v70,2014-01-01 10:15:00,
2014-01-01 05:20:00,18.0,12.0,30.37,WSW,247,4.0,6.0,77,0.00,,,0.00,Weather View 32 v70,2014-01-01 10:20:00,
2014-01-01 05:25:00,18.0,12.0,30.37,WSW,247,2.0,6.0,77,0.00,,,0.00,Weather View 32 v70,2014-01-01 10:25:00,
2014-01-01 05:30:00,18.0,12.3,30.38,SW,225,2.0,6.0,78,0.00,,,0.00,Weather View 32 v70,2014-01-01 10:30:00,
2014-01-01 05:35:00,18.0,12.3,30.38,SW,225,0.0,6.0,78,0.00,,,0.00,Weather View 32 v70,2014-01-01 10:35:00,
2014-01-01 05:40:00,18.0,12.0,30.39,WSW,247,3.0,6.0,77,0.00,,,0.00,Weather View 32 v70,2014-01-01 10:40:00,
2014-01-01 05:45:00,18.0,12.3,30.39,SW,225,2.0,6.0,78,0.00,,,0.00,Weather View 32 v70,2014-01-01 10:45:00,
2014-01-01 05:50:00,17.0,11.9,30.39,SW,225,4.0,6.0,80,0.00,,,0.00,Weather View 32 v70,2014-01-01 10:50:00,
2014-01-01 05:55:00,17.0,11.6,30.39,SW,225,5.0,8.0,79,0.00,,,0.00,Weather View 32 v70,2014-01-01 10:55:00,
2014-01-01 06:00:00,17.0,11.9,30.39,SW,225,6.0,8.0,80,0.00,,,0.00,Weather View 32 v70,2014-01-01 11:00:00,
2014-01-01 06:05:00,17.0,11.9,30.39,SW,225,5.0,8.0,80,0.00,,,0.00,Weather View 32 v70,2014-01-01 11:05:00,
2014-01-01 06:10:00,17.0,11.9,30.41,SW,225,3.0,8.0,80,0.00,,,0.00,Weather View 32 v70,2014-01-01 11:10:00,
2014-01-01 06:15:00,17.0,12.2,30.41,SW,225,6.0,8.0,81,0.00,,,0.00,Weather View 32 v70,2014-01-01 11:15:00,
2014-01-01 06:20:00,17.0,11.9,30.41,SW,225,6.0,8.0,80,0.00,,,0.00,Weather View 32 v70,2014-01-01 11:20:00,
2014-01-01 06:25:00,17.0,12.5,30.41,SW,225,4.0,8.0,82,0.00,,,0.00,Weather View 32 v70,2014-01-01 11:25:00,
2014-01-01 06:30:00,17.0,12.2,30.41,SW,225,4.0,8.0,81,0.00,,,0.00,Weather View 32 v70,2014-01-01 11:30:00,
2014-01-01 06:35:00,17.0,12.2,30.41,SW,225,5.0,8.0,81,0.00,,,0.00,Weather View 32 v70,2014-01-01 11:35:00,
2014-01-01 06:40:00,17.0,12.2,30.40,SW,225,4.0,8.0,81,0.00,,,0.00,Weather View 32 v70,2014-01-01 11:40:00,
2014-01-01 06:45:00,17.0,11.6,30.40,SW,225,5.0,8.0,79,0.00,,,0.00,Weather View 32 v70,2014-01-01 11:45:00,
2014-01-01 06:50:00,17.0,12.2,30.41,SW,225,4.0,8.0,81,0.00,,,0.00,Weather View 32 v70,2014-01-01 11:50:00,
2014-01-01 06:55:00,17.0,11.9,30.41,SW,225,3.0,8.0,80,0.00,,,0.00,Weather View 32 v70,2014-01-01 11:55:00,
2014-01-01 07:00:00,17.0,11.9,30.41,SW,225,3.0,8.0,80,0.00,,,0.00,Weather View 32 v70,2014-01-01 12:00:00,
2014-01-01 07:05:00,17.0,12.5,30.41,SW,225,2.0,8.0,82,0.00,,,0.00,Weather View 32 v70,2014-01-01 12:05:00,
2014-01-01 07:10:00,17.0,12.2,30.41,SW,225,4.0,8.0,81,0.00,,,0.00,Weather View 32 v70,2014-01-01 12:10:00,
2014-01-01 07:15:00,17.0,11.6,30.41,SW,225,4.0,8.0,79,0.00,,,0.00,Weather View 32 v70,2014-01-01 12:15:00,
2014-01-01 07:20:00,17.0,11.9,30.42,SW,225,2.0,8.0,80,0.00,,,0.00,Weather View 32 v70,2014-01-01 12:20:00,
2014-01-01 07:25:00,17.0,11.6,30.42,SSW,202,1.0,8.0,79,0.00,,,0.00,Weather View 32 v70,2014-01-01 12:25:00,
2014-01-01 07:30:00,17.0,11.6,30.42,SSW,202,4.0,8.0,79,0.00,,,0.00,Weather View 32 v70,2014-01-01 12:30:00,
2014-01-01 07:35:00,17.0,12.2,30.42,SW,225,6.0,8.0,81,0.00,,,0.00,Weather View 32 v70,2014-01-01 12:35:00,
2014-01-01 07:40:00,17.0,12.2,30.43,SW,225,6.0,8.0,81,0.00,,,0.00,Weather View 32 v70,2014-01-01 12:40:00,
2014-01-01 07:45:00,17.0,11.6,30.43,SW,225,4.0,7.0,79,0.00,,,0.00,Weather View 32 v70,2014-01-01 12:45:00,
2014-01-01 07:50:00,17.0,12.2,30.43,SW,225,3.0,8.0,81,0.00,,,0.00,Weather View 32 v70,2014-01-01 12:50:00,
2014-01-01 07:55:00,17.0,12.2,30.43,WSW,247,1.0,8.0,81,0.00,,,0.00,Weather View 32 v70,2014-01-01 12:55:00,
2014-01-01 08:00:00,17.0,11.9,30.43,SW,225,3.0,8.0,80,0.00,,,0.00,Weather View 32 v70,2014-01-01 13:00:00,
2014-01-01 08:05:00,17.0,12.2,30.43,SW,225,3.0,8.0,81,0.00,,,0.00,Weather View 32 v70,2014-01-01 13:05:00,
2014-01-01 08:10:00,17.0,12.2,30.44,WSW,247,2.0,8.0,81,0.00,,,0.00,Weather View 32 v70,2014-01-01 13:10:00,
2014-01-01 08:15:00,17.0,11.9,30.44,SW,225,4.0,8.0,80,0.00,,,0.00,Weather View 32 v70,2014-01-01 13:15:00,
2014-01-01 08:20:00,17.0,12.2,30.44,WSW,247,2.0,8.0,81,0.00,,,0.00,Weather View 32 v70,2014-01-01 13:20:00,
2014-01-01 08:25:00,17.0,11.9,30.44,SW,225,4.0,8.0,80,0.00,,,0.00,Weather View 32 v70,2014-01-01 13:25:00,
2014-01-01 08:30:00,17.0,12.2,30.44,SW,225,3.0,8.0,81,0.00,,,0.00,Weather View 32 v70,2014-01-01 13:30:00,
2014-01-01 08:35:00,18.0,13.2,30.44,WSW,247,4.0,8.0,81,0.00,,,0.00,Weather View 32 v70,2014-01-01 13:35:00,
2014-01-01 08:40:00,18.0,12.9,30.45,SW,225,4.0,8.0,80,0.00,,,0.00,Weather View 32 v70,2014-01-01 13:40:00,
2014-01-01 08:45:00,18.0,12.6,30.45,SW,225,0.0,8.0,79,0.00,,,0.00,Weather View 32 v70,2014-01-01 13:45:00,
2014-01-01 08:50:00,18.0,13.2,30.45,SW,225,5.0,6.0,81,0.00,,,0.00,Weather View 32 v70,2014-01-01 13:50:00,
2014-01-01 08:55:00,18.0,13.4,30.45,WSW,247,4.0,6.0,82,0.00,,,0.00,Weather View 32 v70,2014-01-01 13:55:00,
2014-01-01 09:00:00,18.0,12.6,30.45,WSW,247,5.0,6.0,79,0.00,,,0.00,Weather View 32 v70,2014-01-01 14:00:00,
2014-01-01 09:05:00,19.0,13.3,30.45,WSW,247,5.0,7.0,78,0.00,,,0.00,Weather View 32 v70,2014-01-01 14:05:00,
2014-01-01 09:10:00,19.0,13.3,30.45,NW,315,6.0,7.0,78,0.00,,,0.00,Weather View 32 v70,2014-01-01 14:10:00,
2014-01-01 09:16:00,19.0,12.7,30.45,West,270,2.0,7.0,76,0.00,,,0.00,Weather View 32 v70,2014-01-01 14:16:00,
2014-01-01 09:21:00,19.0,12.7,30.45,WSW,247,7.0,7.0,76,0.00,,,0.00,Weather View 32 v70,2014-01-01 14:21:00,
2014-01-01 09:26:00,20.0,13.1,30.45,WSW,247,3.0,8.0,74,0.00,,,0.00,Weather View 32 v70,2014-01-01 14:26:00,
2014-01-01 09:31:00,20.0,13.4,30.45,WSW,247,5.0,8.0,75,0.00,,,0.00,Weather View 32 v70,2014-01-01 14:31:00,
2014-01-01 09:36:00,21.0,13.4,30.45,SW,225,4.0,8.0,72,0.00,,,0.00,Weather View 32 v70,2014-01-01 14:36:00,
2014-01-01 09:41:00,21.0,12.8,30.44,NW,315,2.0,9.0,70,0.00,,,0.00,Weather View 32 v70,2014-01-01 14:41:00,
2014-01-01 09:46:00,21.0,12.4,30.44,NW,315,6.0,9.0,69,0.00,,,0.00,Weather View 32 v70,2014-01-01 14:46:00,
2014-01-01 09:51:00,22.0,13.1,30.44,SW,225,1.0,12.0,68,0.00,,,0.00,Weather View 32 v70,2014-01-01 14:51:00,
2014-01-01 09:56:00,22.0,12.7,30.44,WNW,292,4.0,14.0,67,0.00,,,0.00,Weather View 32 v70,2014-01-01 14:56:00,
2014-01-01 10:01:00,22.0,12.7,30.44,WNW,292,5.0,14.0,67,0.00,,,0.00,Weather View 32 v70,2014-01-01 15:01:00,
2014-01-01 10:06:00,22.0,12.0,30.44,WSW,247,7.0,20.0,65,0.00,,,0.00,Weather View 32 v70,2014-01-01 15:06:00,
2014-01-01 10:11:00,22.0,12.0,30.44,WNW,292,1.0,20.0,65,0.00,,,0.00,Weather View 32 v70,2014-01-01 15:11:00,
2014-01-01 10:16:00,23.0,12.6,30.44,SW,225,6.0,20.0,64,0.00,,,0.00,Weather View 32 v70,2014-01-01 15:16:00,
2014-01-01 10:21:00,23.0,12.6,30.43,West,270,6.0,20.0,64,0.00,,,0.00,Weather View 32 v70,2014-01-01 15:21:00,
2014-01-01 10:26:00,23.0,12.3,30.43,West,270,7.0,20.0,63,0.00,,,0.00,Weather View 32 v70,2014-01-01 15:26:00,
2014-01-01 10:31:00,23.0,12.3,30.43,WSW,247,5.0,20.0,63,0.00,,,0.00,Weather View 32 v70,2014-01-01 15:31:00,
2014-01-01 10:36:00,23.0,11.6,30.43,WSW,247,6.0,20.0,61,0.00,,,0.00,Weather View 32 v70,2014-01-01 15:36:00,
2014-01-01 10:41:00,24.0,11.7,30.42,NW,315,9.0,20.0,59,0.00,,,0.00,Weather View 32 v70,2014-01-01 15:41:00,
2014-01-01 10:46:00,24.0,12.1,30.42,SW,225,4.0,20.0,60,0.00,,,0.00,Weather View 32 v70,2014-01-01 15:46:00,
2014-01-01 10:51:00,24.0,11.7,30.42,WNW,292,5.0,20.0,59,0.00,,,0.00,Weather View 32 v70,2014-01-01 15:51:00,
2014-01-01 10:56:00,25.0,12.7,30.42,West,270,3.0,20.0,59,0.00,,,0.00,Weather View 32 v70,2014-01-01 15:56:00,
2014-01-01 11:01:00,25.0,11.9,30.41,NW,315,7.0,20.0,57,0.00,,,0.00,Weather View 32 v70,2014-01-01 16:01:00,
2014-01-01 11:06:00,25.0,11.5,30.41,SW,225,6.0,20.0,56,0.00,,,0.00,Weather View 32 v70,2014-01-01 16:06:00,
2014-01-01 11:11:00,25.0,11.1,30.41,SW,225,1.0,14.0,55,0.00,,,0.00,Weather View 32 v70,2014-01-01 16:11:00,
2014-01-01 11:16:00,25.0,11.1,30.41,WSW,247,5.0,14.0,55,0.00,,,0.00,Weather View 32 v70,2014-01-01 16:16:00,
2014-01-01 11:21:00,25.0,10.7,30.40,NW,315,8.0,13.0,54,0.00,,,0.00,Weather View 32 v70,2014-01-01 16:21:00,
2014-01-01 11:26:00,25.0,11.5,30.40,WSW,247,6.0,13.0,56,0.00,,,0.00,Weather View 32 v70,2014-01-01 16:26:00,
2014-01-01 11:31:00,25.0,11.1,30.40,WNW,292,3.0,13.0,55,0.00,,,0.00,Weather View 32 v70,2014-01-01 16:31:00,
2014-01-01 11:36:00,25.0,10.7,30.40,WSW,247,7.0,13.0,54,0.00,,,0.00,Weather View 32 v70,2014-01-01 16:36:00,
2014-01-01 11:41:00,26.0,12.0,30.39,SW,225,5.0,13.0,55,0.00,,,0.00,Weather View 32 v70,2014-01-01 16:41:00,
2014-01-01 11:46:00,26.0,10.3,30.39,SW,225,8.0,13.0,51,0.00,,,0.00,Weather View 32 v70,2014-01-01 16:46:00,
2014-01-01 11:51:00,26.0,9.4,30.38,NW,315,6.0,13.0,49,0.00,,,0.00,Weather View 32 v70,2014-01-01 16:51:00,
2014-01-01 11:56:00,27.0,9.9,30.38,West,270,2.0,13.0,48,0.00,,,0.00,Weather View 32 v70,2014-01-01 16:56:00,
2014-01-01 12:01:00,26.0,9.0,30.37,WSW,247,2.0,13.0,48,0.00,,,0.00,Weather View 32 v70,2014-01-01 17:01:00,
2014-01-01 12:06:00,27.0,9.4,30.37,WSW,247,9.0,13.0,47,0.00,,,0.00,Weather View 32 v70,2014-01-01 17:06:00,
2014-01-01 12:11:00,27.0,9.4,30.37,NW,315,10.0,13.0,47,0.00,,,0.00,Weather View 32 v70,2014-01-01 17:11:00,
2014-01-01 12:16:00,27.0,9.0,30.37,NNW,337,5.0,16.0,46,0.00,,,0.00,Weather View 32 v70,2014-01-01 17:16:00,
2014-01-01 12:21:00,27.0,9.9,30.37,WNW,292,3.0,16.0,48,0.00,,,0.00,Weather View 32 v70,2014-01-01 17:21:00,
2014-01-01 12:26:00,28.0,9.4,30.37,NW,315,9.0,16.0,45,0.00,,,0.00,Weather View 32 v70,2014-01-01 17:26:00,
2014-01-01 12:31:00,28.0,9.4,30.36,NW,315,10.0,16.0,45,0.00,,,0.00,Weather View 32 v70,2014-01-01 17:31:00,
2014-01-01 12:36:00,28.0,10.4,30.36,South,180,5.0,16.0,47,0.00,,,0.00,Weather View 32 v70,2014-01-01 17:36:00,
2014-01-01 12:41:00,28.0,9.9,30.36,West,270,3.0,16.0,46,0.00,,,0.00,Weather View 32 v70,2014-01-01 17:41:00,
2014-01-01 12:46:00,28.0,8.9,30.36,NW,315,6.0,16.0,44,0.00,,,0.00,Weather View 32 v70,2014-01-01 17:46:00,
2014-01-01 12:51:00,28.0,8.4,30.36,SW,225,2.0,16.0,43,0.00,,,0.00,Weather View 32 v70,2014-01-01 17:51:00,
2014-01-01 12:56:00,28.0,8.4,30.36,WNW,292,6.0,16.0,43,0.00,,,0.00,Weather View 32 v70,2014-01-01 17:56:00,
2014-01-01 13:01:00,28.0,7.9,30.36,WNW,292,5.0,16.0,42,0.00,,,0.00,Weather View 32 v70,2014-01-01 18:01:00,
2014-01-01 13:06:00,28.0,7.9,30.36,West,270,7.0,16.0,42,0.00,,,0.00,Weather View 32 v70,2014-01-01 18:06:00,
2014-01-01 13:11:00,29.0,8.2,30.36,NNW,337,4.0,16.0,41,0.00,,,0.00,Weather View 32 v70,2014-01-01 18:11:00,
2014-01-01 13:16:00,29.0,9.3,30.36,WSW,247,6.0,14.0,43,0.00,,,0.00,Weather View 32 v70,2014-01-01 18:16:00,
2014-01-01 13:21:00,29.0,8.8,30.36,West,270,6.0,14.0,42,0.00,,,0.00,Weather View 32 v70,2014-01-01 18:21:00,
2014-01-01 13:26:00,29.0,7.7,30.36,WSW,247,6.0,14.0,40,0.00,,,0.00,Weather View 32 v70,2014-01-01 18:26:00,
2014-01-01 13:31:00,29.0,8.2,30.35,WSW,247,7.0,14.0,41,0.00,,,0.00,Weather View 32 v70,2014-01-01 18:31:00,
2014-01-01 13:36:00,29.0,8.8,30.35,West,270,6.0,14.0,42,0.00,,,0.00,Weather View 32 v70,2014-01-01 18:36:00,
2014-01-01 13:41:00,29.0,8.8,30.36,SW,225,5.0,13.0,42,0.00,,,0.00,Weather View 32 v70,2014-01-01 18:41:00,
2014-01-01 13:46:00,29.0,8.8,30.36,WSW,247,4.0,13.0,42,0.00,,,0.00,Weather View 32 v70,2014-01-01 18:46:00,
2014-01-01 13:51:00,29.0,8.8,30.36,WSW,247,5.0,13.0,42,0.00,,,0.00,Weather View 32 v70,2014-01-01 18:51:00,
2014-01-01 13:56:00,29.0,9.3,30.36,SW,225,5.0,13.0,43,0.00,,,0.00,Weather View 32 v70,2014-01-01 18:56:00,
2014-01-01 14:01:00,29.0,8.2,30.35,West,270,3.0,12.0,41,0.00,,,0.00,Weather View 32 v70,2014-01-01 19:01:00,
2014-01-01 14:06:00,29.0,8.8,30.35,WSW,247,6.0,12.0,42,0.00,,,0.00,Weather View 32 v70,2014-01-01 19:06:00,
2014-01-01 14:11:00,29.0,9.3,30.35,WNW,292,6.0,12.0,43,0.00,,,0.00,Weather View 32 v70,2014-01-01 19:11:00,
2014-01-01 14:16:00,29.0,9.3,30.35,West,270,2.0,12.0,43,0.00,,,0.00,Weather View 32 v70,2014-01-01 19:16:00,
2014-01-01 14:21:00,29.0,8.2,30.35,SW,225,2.0,12.0,41,0.00,,,0.00,Weather View 32 v70,2014-01-01 19:21:00,
2014-01-01 14:26:00,29.0,9.3,30.35,WSW,247,4.0,12.0,43,0.00,,,0.00,Weather View 32 v70,2014-01-01 19:26:00,
2014-01-01 14:31:00,29.0,9.8,30.35,WSW,247,2.0,12.0,44,0.00,,,0.00,Weather View 32 v70,2014-01-01 19:31:00,
2014-01-01 14:36:00,29.0,9.3,30.35,West,270,0.0,12.0,43,0.00,,,0.00,Weather View 32 v70,2014-01-01 19:36:00,
2014-01-01 14:41:00,29.0,11.8,30.35,WNW,292,3.0,12.0,48,0.00,,,0.00,Weather View 32 v70,2014-01-01 19:41:00,
2014-01-01 14:46:00,29.0,9.3,30.35,WSW,247,4.0,12.0,43,0.00,,,0.00,Weather View 32 v70,2014-01-01 19:46:00,
2014-01-01 14:51:00,28.0,9.4,30.35,West,270,3.0,12.0,45,0.00,,,0.00,Weather View 32 v70,2014-01-01 19:51:00,
2014-01-01 14:56:00,28.0,9.4,30.35,WNW,292,4.0,12.0,45,0.00,,,0.00,Weather View 32 v70,2014-01-01 19:56:00,
2014-01-01 15:01:00,28.0,9.9,30.36,SW,225,5.0,12.0,46,0.00,,,0.00,Weather View 32 v70,2014-01-01 20:01:00,
2014-01-01 15:06:00,28.0,12.6,30.36,WSW,247,5.0,12.0,52,0.00,,,0.00,Weather View 32 v70,2014-01-01 20:06:00,
2014-01-01 15:11:00,28.0,10.8,30.36,SW,225,3.0,12.0,48,0.00,,,0.00,Weather View 32 v70,2014-01-01 20:11:00,
2014-01-01 15:16:00,28.0,11.7,30.36,SW,225,5.0,11.0,50,0.00,,,0.00,Weather View 32 v70,2014-01-01 20:16:00,
2014-01-01 15:21:00,28.0,11.3,30.36,West,270,0.0,11.0,49,0.00,,,0.00,Weather View 32 v70,2014-01-01 20:21:00,
2014-01-01 15:26:00,28.0,11.3,30.36,WSW,247,3.0,11.0,49,0.00,,,0.00,Weather View 32 v70,2014-01-01 20:26:00,
2014-01-01 15:31:00,27.0,11.7,30.36,West,270,1.0,11.0,52,0.00,,,0.00,Weather View 32 v70,2014-01-01 20:31:00,
2014-01-01 15:36:00,27.0,10.8,30.36,WSW,247,2.0,11.0,50,0.00,,,0.00,Weather View 32 v70,2014-01-01 20:36:00,
2014-01-01 15:41:00,27.0,10.8,30.36,WSW,247,3.0,11.0,50,0.00,,,0.00,Weather View 32 v70,2014-01-01 20:41:00,
2014-01-01 15:46:00,27.0,10.8,30.36,West,270,4.0,8.0,50,0.00,,,0.00,Weather View 32 v70,2014-01-01 20:46:00,
2014-01-01 15:51:00,27.0,11.7,30.36,WNW,292,0.0,7.0,52,0.00,,,0.00,Weather View 32 v70,2014-01-01 20:51:00,
2014-01-01 15:56:00,27.0,11.7,30.36,SW,225,1.0,6.0,52,0.00,,,0.00,Weather View 32 v70,2014-01-01 20:56:00,
2014-01-01 16:01:00,27.0,11.7,30.36,WSW,247,3.0,6.0,52,0.00,,,0.00,Weather View 32 v70,2014-01-01 21:01:00,
2014-01-01 16:06:00,27.0,11.7,30.36,West,270,2.0,6.0,52,0.00,,,0.00,Weather View 32 v70,2014-01-01 21:06:00,
2014-01-01 16:11:00,27.0,12.6,30.37,West,270,0.0,6.0,54,0.00,,,0.00,Weather View 32 v70,2014-01-01 21:11:00,
2014-01-01 16:16:00,27.0,13.0,30.37,West,270,1.0,6.0,55,0.00,,,0.00,Weather View 32 v70,2014-01-01 21:16:00,
2014-01-01 16:21:00,26.0,12.0,30.37,West,270,2.0,6.0,55,0.00,,,0.00,Weather View 32 v70,2014-01-01 21:21:00,
2014-01-01 16:26:00,26.0,11.6,30.37,NW,315,0.0,6.0,54,0.00,,,0.00,Weather View 32 v70,2014-01-01 21:26:00,
2014-01-01 16:31:00,26.0,12.0,30.37,West,270,2.0,6.0,55,0.00,,,0.00,Weather View 32 v70,2014-01-01 21:31:00,
2014-01-01 16:36:00,26.0,11.6,30.37,West,270,3.0,7.0,54,0.00,,,0.00,Weather View 32 v70,2014-01-01 21:36:00,
2014-01-01 16:41:00,27.0,13.0,30.37,West,270,2.0,7.0,55,0.00,,,0.00,Weather View 32 v70,2014-01-01 21:41:00,
2014-01-01 16:46:00,27.0,13.0,30.37,West,270,5.0,7.0,55,0.00,,,0.00,Weather View 32 v70,2014-01-01 21:46:00,
2014-01-01 16:51:00,27.0,13.0,30.37,West,270,5.0,7.0,55,0.00,,,0.00,Weather View 32 v70,2014-01-01 21:51:00,
2014-01-01 16:56:00,27.0,13.0,30.37,WNW,292,1.0,7.0,55,0.00,,,0.00,Weather View 32 v70,2014-01-01 21:56:00,
2014-01-01 17:01:00,27.0,12.6,30.37,West,270,6.0,7.0,54,0.00,,,0.00,Weather View 32 v70,2014-01-01 22:01:00,
2014-01-01 17:06:00,27.0,12.6,30.37,West,270,3.0,7.0,54,0.00,,,0.00,Weather View 32 v70,2014-01-01 22:06:00,
2014-01-01 17:11:00,27.0,12.6,30.37,WSW,247,2.0,10.0,54,0.00,,,0.00,Weather View 32 v70,2014-01-01 22:11:00,
2014-01-01 17:16:00,27.0,13.0,30.37,West,270,1.0,10.0,55,0.00,,,0.00,Weather View 32 v70,2014-01-01 22:16:00,
2014-01-01 17:21:00,27.0,13.0,30.37,WSW,247,2.0,10.0,55,0.00,,,0.00,Weather View 32 v70,2014-01-01 22:21:00,
2014-01-01 17:26:00,27.0,13.0,30.37,WNW,292,3.0,10.0,55,0.00,,,0.00,Weather View 32 v70,2014-01-01 22:26:00,
2014-01-01 17:31:00,27.0,14.6,30.37,WNW,292,3.0,10.0,59,0.00,,,0.00,Weather View 32 v70,2014-01-01 22:31:00,
2014-01-01 17:36:00,27.0,14.2,30.37,West,270,3.0,10.0,58,0.00,,,0.00,Weather View 32 v70,2014-01-01 22:36:00,
2014-01-01 17:41:00,27.0,13.4,30.37,West,270,0.0,10.0,56,0.00,,,0.00,Weather View 32 v70,2014-01-01 22:41:00,
2014-01-01 17:46:00,27.0,13.8,30.37,West,270,0.0,10.0,57,0.00,,,0.00,Weather View 32 v70,2014-01-01 22:46:00,
2014-01-01 17:51:00,27.0,13.4,30.37,West,270,1.0,10.0,56,0.00,,,0.00,Weather View 32 v70,2014-01-01 22:51:00,
2014-01-01 17:56:00,27.0,13.4,30.37,West,270,0.0,10.0,56,0.00,,,0.00,Weather View 32 v70,2014-01-01 22:56:00,
2014-01-01 18:01:00,27.0,13.8,30.37,NW,315,0.0,10.0,57,0.00,,,0.00,Weather View 32 v70,2014-01-01 23:01:00,
2014-01-01 18:06:00,27.0,13.4,30.37,NW,315,2.0,10.0,56,0.00,,,0.00,Weather View 32 v70,2014-01-01 23:06:00,
2014-01-01 18:11:00,27.0,13.8,30.37,NW,315,1.0,7.0,57,0.00,,,0.00,Weather View 32 v70,2014-01-01 23:11:00,
2014-01-01 18:16:00,26.0,12.8,30.37,NW,315,0.0,7.0,57,0.00,,,0.00,Weather View 32 v70,2014-01-01 23:16:00,
2014-01-01 18:21:00,27.0,13.4,30.37,WNW,292,1.0,6.0,56,0.00,,,0.00,Weather View 32 v70,2014-01-01 23:21:00,
2014-01-01 18:26:00,27.0,16.1,30.37,WNW,292,0.0,6.0,63,0.00,,,0.00,Weather View 32 v70,2014-01-01 23:26:00,
2014-01-01 18:31:00,27.0,15.3,30.38,WNW,292,0.0,6.0,61,0.00,,,0.00,Weather View 32 v70,2014-01-01 23:31:00,
2014-01-01 18:37:00,27.0,13.4,30.38,WNW,292,0.0,6.0,56,0.00,,,0.00,Weather View 32 v70,2014-01-01 23:37:00,
2014-01-01 18:42:00,27.0,15.3,30.38,North,360,0.0,6.0,61,0.00,,,0.00,Weather View 32 v70,2014-01-01 23:42:00,
2014-01-01 18:47:00,27.0,14.6,30.38,NW,315,3.0,6.0,59,0.00,,,0.00,Weather View 32 v70,2014-01-01 23:47:00,
2014-01-01 18:52:00,27.0,14.6,30.38,WNW,292,0.0,6.0,59,0.00,,,0.00,Weather View 32 v70,2014-01-01 23:52:00,
2014-01-01 18:57:00,27.0,14.6,30.38,NNW,337,2.0,6.0,59,0.00,,,0.00,Weather View 32 v70,2014-01-01 23:57:00,
2014-01-01 19:02:00,26.0,14.0,30.38,NNW,337,2.0,6.0,60,0.00,,,0.00,Weather View 32 v70,2014-01-02 00:02:00,
2014-01-01 19:07:00,26.0,13.6,30.39,NNW,337,1.0,6.0,59,0.00,,,0.00,Weather View 32 v70,2014-01-02 00:07:00,
2014-01-01 19:12:00,26.0,14.0,30.39,NNW,337,1.0,6.0,60,0.00,,,0.00,Weather View 32 v70,2014-01-02 00:12:00,
2014-01-01 19:17:00,26.0,14.4,30.39,NNW,337,0.0,6.0,61,0.00,,,0.00,Weather View 32 v70,2014-01-02 00:17:00,
2014-01-01 19:22:00,26.0,14.8,30.39,NNW,337,2.0,6.0,62,0.00,,,0.00,Weather View 32 v70,2014-01-02 00:22:00,
2014-01-01 19:27:00,26.0,15.1,30.39,NNW,337,0.0,6.0,63,0.00,,,0.00,Weather View 32 v70,2014-01-02 00:27:00,
2014-01-01 19:32:00,26.0,15.1,30.39,NNW,337,2.0,6.0,63,0.00,,,0.00,Weather View 32 v70,2014-01-02 00:32:00,
2014-01-01 19:37:00,27.0,15.3,30.39,NW,315,2.0,6.0,61,0.00,,,0.00,Weather View 32 v70,2014-01-02 00:37:00,
2014-01-01 19:42:00,26.0,14.8,30.39,NW,315,0.0,6.0,62,0.00,,,0.00,Weather View 32 v70,2014-01-02 00:42:00,
2014-01-01 19:47:00,26.0,14.8,30.39,NW,315,1.0,6.0,62,0.00,,,0.00,Weather View 32 v70,2014-01-02 00:47:00,
2014-01-01 19:52:00,26.0,15.1,30.39,NW,315,1.0,6.0,63,0.00,,,0.00,Weather View 32 v70,2014-01-02 00:52:00,
2014-01-01 19:57:00,26.0,15.1,30.39,North,360,1.0,5.0,63,0.00,,,0.00,Weather View 32 v70,2014-01-02 00:57:00,
2014-01-01 20:02:00,26.0,15.1,30.39,North,360,2.0,5.0,63,0.00,,,0.00,Weather View 32 v70,2014-01-02 01:02:00,
2014-01-01 20:07:00,26.0,15.1,30.39,North,360,2.0,5.0,63,0.00,,,0.00,Weather View 32 v70,2014-01-02 01:07:00,
2014-01-01 20:12:00,26.0,15.5,30.39,NE,45,3.0,5.0,64,0.00,,,0.00,Weather View 32 v70,2014-01-02 01:12:00,
2014-01-01 20:17:00,26.0,15.5,30.39,North,360,0.0,5.0,64,0.00,,,0.00,Weather View 32 v70,2014-01-02 01:17:00,
2014-01-01 20:22:00,26.0,15.8,30.39,North,360,3.0,5.0,65,0.00,,,0.00,Weather View 32 v70,2014-01-02 01:22:00,
2014-01-01 20:27:00,26.0,16.2,30.39,NNW,337,3.0,5.0,66,0.00,,,0.00,Weather View 32 v70,2014-01-02 01:27:00,
2014-01-01 20:32:00,26.0,17.2,30.39,NNW,337,1.0,6.0,69,0.00,,,0.00,Weather View 32 v70,2014-01-02 01:32:00,
2014-01-01 20:37:00,27.0,18.9,30.39,ESE,112,4.0,6.0,71,0.00,,,0.00,Weather View 32 v70,2014-01-02 01:37:00,
2014-01-01 20:42:00,26.0,18.9,30.39,SE,135,0.0,6.0,74,0.00,,,0.00,Weather View 32 v70,2014-01-02 01:42:00,
2014-01-01 20:47:00,26.0,19.5,30.39,NE,45,3.0,6.0,76,0.00,,,0.00,Weather View 32 v70,2014-01-02 01:47:00,
2014-01-01 20:52:00,25.0,19.1,30.39,NNE,22,4.0,6.0,78,0.00,,,0.00,Weather View 32 v70,2014-01-02 01:52:00,
2014-01-01 20:57:00,25.0,19.4,30.39,NNE,22,3.0,6.0,79,0.00,,,0.00,Weather View 32 v70,2014-01-02 01:57:00,
2014-01-01 21:02:00,25.0,20.3,30.39,NNE,22,5.0,6.0,82,0.00,,,0.00,Weather View 32 v70,2014-01-02 02:02:00,
2014-01-01 21:07:00,25.0,20.6,30.39,NE,45,6.0,6.0,83,0.00,,,0.00,Weather View 32 v70,2014-01-02 02:07:00,
2014-01-01 21:13:00,25.0,21.1,30.39,NE,45,4.0,6.0,85,0.00,,,0.00,Weather View 32 v70,2014-01-02 02:13:00,
2014-01-01 21:18:00,25.0,20.9,30.39,NNE,22,6.0,6.0,84,0.00,,,0.00,Weather View 32 v70,2014-01-02 02:18:00,
2014-01-01 21:23:00,24.0,20.4,30.39,North,360,4.0,6.0,86,0.00,,,0.00,Weather View 32 v70,2014-01-02 02:23:00,
2014-01-01 21:28:00,25.0,21.1,30.39,NNE,22,1.0,6.0,85,0.00,,,0.00,Weather View 32 v70,2014-01-02 02:28:00,
2014-01-01 21:33:00,24.0,20.4,30.39,NNE,22,6.0,7.0,86,0.00,,,0.00,Weather View 32 v70,2014-01-02 02:33:00,
2014-01-01 21:38:00,25.0,21.7,30.38,NE,45,2.0,7.0,87,0.00,,,0.00,Weather View 32 v70,2014-01-02 02:38:00,
2014-01-01 21:43:00,24.0,20.7,30.38,North,360,1.0,9.0,87,0.00,,,0.00,Weather View 32 v70,2014-01-02 02:43:00,
2014-01-01 21:48:00,24.0,20.4,30.38,North,360,1.0,9.0,86,0.00,,,0.00,Weather View 32 v70,2014-01-02 02:48:00,
2014-01-01 21:59:00,24.0,20.4,30.38,NE,45,5.0,9.0,86,0.00,,,0.00,Weather View 32 v70,2014-01-02 02:59:00,
2014-01-01 22:05:00,24.0,20.4,30.38,NNE,22,3.0,9.0,86,0.00,,,0.00,Weather View 32 v70,2014-01-02 03:05:00,
2014-01-01 22:10:00,24.0,20.7,30.38,NNW,337,2.0,9.0,87,0.00,,,0.00,Weather View 32 v70,2014-01-02 03:10:00,
2014-01-01 22:15:00,24.0,21.0,30.38,NNW,337,4.0,9.0,88,0.00,,,0.00,Weather View 32 v70,2014-01-02 03:15:00,
2014-01-01 22:20:00,24.0,21.2,30.38,NNE,22,4.0,9.0,89,0.00,,,0.00,Weather View 32 v70,2014-01-02 03:20:00,
2014-01-01 22:25:00,24.0,21.8,30.38,ENE,67,3.0,9.0,91,0.00,,,0.00,Weather View 32 v70,2014-01-02 03:25:00,
2014-01-01 22:30:00,24.0,22.0,30.38,NE,45,6.0,9.0,92,0.00,,,0.00,Weather View 32 v70,2014-01-02 03:30:00,
2014-01-01 22:35:00,24.0,21.8,30.38,NE,45,6.0,10.0,91,0.00,,,0.00,Weather View 32 v70,2014-01-02 03:35:00,
2014-01-01 22:40:00,23.0,20.8,30.38,NE,45,6.0,10.0,91,0.00,,,0.00,Weather View 32 v70,2014-01-02 03:40:00,
2014-01-01 22:45:00,23.0,20.5,30.38,NNE,22,6.0,10.0,90,0.00,,,0.00,Weather View 32 v70,2014-01-02 03:45:00,
2014-01-01 22:50:00,23.0,21.0,30.38,ENE,67,3.0,10.0,92,0.00,,,0.00,Weather View 32 v70,2014-01-02 03:50:00,
2014-01-01 22:55:00,23.0,21.0,30.38,NNE,22,6.0,10.0,92,0.00,,,0.00,Weather View 32 v70,2014-01-02 03:55:00,
2014-01-01 23:00:00,23.0,20.5,30.38,NE,45,4.0,10.0,90,0.00,,,0.00,Weather View 32 v70,2014-01-02 04:00:00,
2014-01-01 23:05:00,23.0,20.2,30.38,East,90,2.0,10.0,89,0.00,,,0.00,Weather View 32 v70,2014-01-02 04:05:00,
2014-01-01 23:10:00,23.0,20.2,30.38,ENE,67,3.0,10.0,89,0.00,,,0.00,Weather View 32 v70,2014-01-02 04:10:00,
2014-01-01 23:15:00,23.0,20.2,30.38,East,90,6.0,10.0,89,0.00,,,0.00,Weather View 32 v70,2014-01-02 04:15:00,
2014-01-01 23:20:00,23.0,20.5,30.37,East,90,6.0,10.0,90,0.00,,,0.00,Weather View 32 v70,2014-01-02 04:20:00,
2014-01-01 23:25:00,23.0,20.5,30.37,North,360,2.0,10.0,90,0.00,,,0.00,Weather View 32 v70,2014-01-02 04:25:00,
2014-01-01 23:30:00,22.0,19.8,30.37,North,360,2.0,10.0,91,0.00,,,0.00,Weather View 32 v70,2014-01-02 04:30:00,
2014-01-01 23:35:00,22.0,20.5,30.37,ENE,67,5.0,10.0,94,0.00,,,0.00,Weather View 32 v70,2014-01-02 04:35:00,
2014-01-01 23:40:00,22.0,20.5,30.38,ENE,67,4.0,10.0,94,0.00,,,0.00,Weather View 32 v70,2014-01-02 04:40:00,
2014-01-01 23:45:00,22.0,20.8,30.38,NNE,22,9.0,10.0,95,0.00,,,0.00,Weather View 32 v70,2014-01-02 04:45:00,
2014-01-01 23:50:00,22.0,21.3,30.38,NE,45,3.0,10.0,97,0.00,,,0.00,Weather View 32 v70,2014-01-02 04:50:00,
2014-01-01 23:55:00,22.0,21.3,30.38,NNE,22,5.0,10.0,97,0.00,,,0.00,Weather View 32 v70,2014-01-02 04:55:00,